Time;durP1;ratioP1;P1;durP2;ratioP2;P2;SDS_P1;SDS_P2;PMS_P1;PMS_P2;Temp;Humidity;BMP_temperature;BMP_pressure;BME280_temperature;BME280_humidity;BME280_pressure;Samples;Min_cycle;Max_cycle;Signal;HPM_P1;HPM_P2
2023/01/06 00:01:04;;;;;;;6.00;3.27;;;;;;;;;;5012659;28;20235;-79
2023/01/06 00:03:31;;;;;;;4.17;3.67;;;;;;;;;;4996708;28;20250;-80
2023/01/06 00:05:58;;;;;;;4.23;3.80;;;;;;;;;;4992767;28;20235;-81
2023/01/06 00:08:25;;;;;;;4.90;4.00;;;;;;;;;;4992651;28;20239;-80
2023/01/06 00:10:54;;;;;;;4.30;3.80;;;;;;;;;;4992560;28;20239;-80
2023/01/06 00:13:21;;;;;;;4.43;4.07;;;;;;;;;;4993145;28;20232;-79
2023/01/06 00:15:48;;;;;;;5.37;4.67;;;;;;;;;;4992573;28;20235;-80
2023/01/06 00:18:15;;;;;;;4.67;4.27;;;;;;;;;;4994656;28;20224;-80
2023/01/06 00:20:42;;;;;;;4.70;4.23;;;;;;;;;;5011773;28;20247;-80
2023/01/06 00:23:09;;;;;;;6.40;3.50;;;;;;;;;;5012311;28;20639;-80
2023/01/06 00:25:36;;;;;;;5.87;5.27;;;;;;;;;;5012248;28;20231;-81
2023/01/06 00:28:05;;;;;;;9.27;6.30;;;;;;;;;;5012536;28;20218;-80
2023/01/06 00:30:32;;;;;;;4.87;4.13;;;;;;;;;;5011368;28;20242;-79
2023/01/06 00:32:59;;;;;;;6.80;5.70;;;;;;;;;;5012481;28;20227;-80
2023/01/06 00:35:26;;;;;;;6.07;5.57;;;;;;;;;;5000921;28;20232;-80
2023/01/06 00:37:53;;;;;;;5.50;5.00;;;;;;;;;;5022214;28;20582;-80
2023/01/06 00:40:20;;;;;;;6.10;4.63;;;;;;;;;;5015392;28;20234;-80
2023/01/06 00:42:47;;;;;;;5.33;4.83;;;;;;;;;;5012791;28;20207;-80
2023/01/06 00:45:15;;;;;;;5.73;4.93;;;;;;;;;;5011684;28;20207;-80
2023/01/06 00:47:42;;;;;;;6.50;5.00;;;;;;;;;;5012213;28;20211;-81
2023/01/06 00:50:10;;;;;;;5.00;4.53;;;;;;;;;;5011993;28;20234;-79
2023/01/06 00:52:37;;;;;;;5.60;5.10;;;;;;;;;;4992700;28;20228;-80
2023/01/06 00:55:04;;;;;;;5.73;5.23;;;;;;;;;;4992095;28;20212;-79
2023/01/06 00:57:31;;;;;;;7.03;6.37;;;;;;;;;;4992635;28;20211;-79
2023/01/06 00:59:58;;;;;;;8.93;4.80;;;;;;;;;;4992516;28;20228;-80
2023/01/06 01:02:27;;;;;;;6.60;5.33;;;;;;;;;;4991978;28;20244;-80
2023/01/06 01:04:54;;;;;;;6.27;5.30;;;;;;;;;;4993887;28;20208;-80
2023/01/06 01:07:21;;;;;;;6.10;5.50;;;;;;;;;;5011483;28;20305;-80
2023/01/06 01:09:48;;;;;;;5.20;4.50;;;;;;;;;;5000134;28;20549;-80
2023/01/06 01:12:15;;;;;;;7.50;6.07;;;;;;;;;;4997555;28;20247;-80
2023/01/06 01:14:45;;;;;;;6.70;6.00;;;;;;;;;;4992444;28;20564;-80
2023/01/06 01:17:13;;;;;;;6.47;5.73;;;;;;;;;;4991638;28;20238;-80
2023/01/06 01:19:42;;;;;;;7.53;6.17;;;;;;;;;;4998641;28;20231;-80
2023/01/06 01:22:09;;;;;;;8.60;6.63;;;;;;;;;;5010739;28;20231;-80
2023/01/06 01:24:36;;;;;;;7.00;4.90;;;;;;;;;;5009725;28;20223;-80
2023/01/06 01:27:03;;;;;;;7.00;6.30;;;;;;;;;;4991661;28;20235;-81
2023/01/06 01:29:30;;;;;;;7.47;6.67;;;;;;;;;;4991705;28;20228;-80
2023/01/06 01:31:57;;;;;;;6.50;5.90;;;;;;;;;;4991401;28;20259;-80
2023/01/06 01:34:24;;;;;;;7.17;5.30;;;;;;;;;;4992157;28;20289;-80
2023/01/06 01:36:54;;;;;;;5.33;4.83;;;;;;;;;;5001510;28;20711;-81
2023/01/06 01:39:21;;;;;;;4.87;4.37;;;;;;;;;;5011553;28;20228;-80
2023/01/06 01:41:49;;;;;;;3.57;3.27;;;;;;;;;;5014291;28;20231;-80
2023/01/06 01:44:34;;;;;;;3.17;2.97;;;;;;;;;;5015650;28;20558;-81
2023/01/06 01:47:02;;;;;;;3.83;3.50;;;;;;;;;;5002623;28;20239;-80
2023/01/06 01:49:31;;;;;;;2.80;2.60;;;;;;;;;;4995502;28;20231;-80
2023/01/06 01:52:00;;;;;;;3.00;2.60;;;;;;;;;;4994949;28;20231;-79
2023/01/06 01:54:29;;;;;;;3.47;3.10;;;;;;;;;;4995841;28;20626;-80
2023/01/06 01:56:58;;;;;;;3.40;3.10;;;;;;;;;;4994873;28;20738;-80
2023/01/06 01:59:27;;;;;;;3.10;2.90;;;;;;;;;;4995484;28;20231;-81
2023/01/06 02:01:55;;;;;;;3.40;3.10;;;;;;;;;;4995185;28;20240;-81
2023/01/06 02:04:22;;;;;;;3.17;2.97;;;;;;;;;;4995546;28;20208;-80
2023/01/06 02:06:49;;;;;;;3.93;3.13;;;;;;;;;;4994665;28;20239;-80
2023/01/06 02:09:18;;;;;;;4.13;3.17;;;;;;;;;;5011731;28;20232;-80
2023/01/06 02:11:46;;;;;;;3.73;3.43;;;;;;;;;;5014400;28;20877;-80
2023/01/06 02:14:14;;;;;;;4.13;3.07;;;;;;;;;;5014384;28;20683;-80
2023/01/06 02:16:49;;;;;;;3.47;3.23;;;;;;;;;;5014256;28;20231;-80
2023/01/06 02:19:30;;;;;;;4.13;3.30;;;;;;;;;;5014271;28;20233;-80
2023/01/06 02:22:06;;;;;;;3.50;3.20;;;;;;;;;;5014476;28;20562;-80
2023/01/06 02:24:48;;;;;;;4.30;3.90;;;;;;;;;;5014660;28;20194;-79
2023/01/06 02:27:33;;;;;;;3.57;3.27;;;;;;;;;;5013683;28;20234;-80
2023/01/06 02:30:22;;;;;;;4.30;3.57;;;;;;;;;;5014265;28;20227;-80
2023/01/06 02:32:54;;;;;;;4.70;4.20;;;;;;;;;;5014319;28;20281;-80
2023/01/06 02:35:28;;;;;;;3.60;3.30;;;;;;;;;;5014075;28;20192;-80
2023/01/06 02:37:58;;;;;;;4.80;3.93;;;;;;;;;;5014127;28;20635;-80
2023/01/06 02:40:31;;;;;;;4.83;4.30;;;;;;;;;;5013889;28;20345;-80
2023/01/06 02:43:03;;;;;;;3.97;3.57;;;;;;;;;;5014435;28;20183;-80
2023/01/06 02:45:32;;;;;;;4.20;3.80;;;;;;;;;;5013720;28;20234;-80
2023/01/06 02:48:03;;;;;;;4.33;3.93;;;;;;;;;;5012695;28;20291;-81
2023/01/06 02:50:37;;;;;;;5.73;3.97;;;;;;;;;;5013915;28;20643;-80
2023/01/06 02:53:07;;;;;;;6.23;4.00;;;;;;;;;;5013507;28;20215;-80
2023/01/06 02:55:36;;;;;;;4.10;3.70;;;;;;;;;;5013688;28;20289;-79
2023/01/06 02:58:06;;;;;;;3.40;3.10;;;;;;;;;;5013572;28;20245;-80
2023/01/06 03:00:34;;;;;;;3.30;3.00;;;;;;;;;;4994810;28;20236;-81
2023/01/06 03:03:05;;;;;;;3.67;3.37;;;;;;;;;;4994297;28;20208;-80
2023/01/06 03:05:34;;;;;;;3.00;2.70;;;;;;;;;;4993805;28;20634;-80
2023/01/06 03:08:03;;;;;;;2.30;2.20;;;;;;;;;;4993789;28;20195;-81
2023/01/06 03:10:31;;;;;;;2.30;2.20;;;;;;;;;;5011943;28;20250;-80
2023/01/06 03:13:01;;;;;;;2.53;2.10;;;;;;;;;;5013737;28;20227;-81
2023/01/06 03:15:28;;;;;;;2.10;2.00;;;;;;;;;;5013011;28;20235;-80
2023/01/06 03:17:55;;;;;;;2.27;2.17;;;;;;;;;;5013813;28;20581;-80
2023/01/06 03:20:24;;;;;;;3.03;2.40;;;;;;;;;;5012726;28;20637;-80
2023/01/06 03:22:51;;;;;;;2.50;2.30;;;;;;;;;;5013129;28;20672;-80
2023/01/06 03:25:18;;;;;;;2.30;2.13;;;;;;;;;;5012700;28;20211;-80
2023/01/06 03:27:45;;;;;;;2.57;2.37;;;;;;;;;;5011435;28;20208;-80
2023/01/06 03:30:13;;;;;;;2.40;2.30;;;;;;;;;;4993032;28;20866;-80
2023/01/06 03:32:42;;;;;;;2.77;2.57;;;;;;;;;;4998042;28;20220;-80
2023/01/06 03:35:18;;;;;;;2.23;2.03;;;;;;;;;;5012727;28;20204;-80
2023/01/06 03:37:50;;;;;;;2.03;1.93;;;;;;;;;;5012922;28;20188;-81
2023/01/06 03:40:20;;;;;;;2.77;2.57;;;;;;;;;;5012823;28;20227;-80
2023/01/06 03:45:39;;;;;;;2.80;2.37;;;;;;;;;;5012615;28;20314;-81
2023/01/06 03:48:11;;;;;;;2.23;2.10;;;;;;;;;;5000912;28;20196;-80
2023/01/06 03:50:40;;;;;;;2.30;2.20;;;;;;;;;;4992926;28;20239;-80
2023/01/06 03:53:16;;;;;;;2.10;2.00;;;;;;;;;;4993201;28;20235;-79
2023/01/06 03:55:44;;;;;;;1.90;1.80;;;;;;;;;;5011658;28;20763;-80
2023/01/06 03:58:11;;;;;;;2.13;2.03;;;;;;;;;;5012680;28;20203;-80
2023/01/06 04:00:38;;;;;;;1.97;1.87;;;;;;;;;;5012416;28;20289;-79
2023/01/06 04:03:08;;;;;;;2.00;1.90;;;;;;;;;;5012720;28;20203;-79
2023/01/06 04:05:35;;;;;;;2.10;2.00;;;;;;;;;;5011835;28;20254;-79
2023/01/06 04:08:02;;;;;;;2.10;1.97;;;;;;;;;;5012456;28;20667;-80
2023/01/06 04:10:30;;;;;;;2.03;1.80;;;;;;;;;;5012248;28;20239;-79
2023/01/06 04:12:56;;;;;;;1.90;1.80;;;;;;;;;;5012682;28;20242;-79
2023/01/06 04:15:24;;;;;;;2.03;1.80;;;;;;;;;;5011709;28;20242;-79
2023/01/06 04:17:52;;;;;;;2.17;2.00;;;;;;;;;;5009312;28;20200;-80
2023/01/06 04:20:20;;;;;;;2.30;1.97;;;;;;;;;;5035889;23;20230;-80
2023/01/06 04:22:47;;;;;;;1.70;1.60;;;;;;;;;;5033348;28;20210;-80
2023/01/06 04:25:14;;;;;;;2.50;2.30;;;;;;;;;;5046907;28;20214;-81
2023/01/06 04:27:43;;;;;;;2.60;2.40;;;;;;;;;;5032200;28;20219;-80
2023/01/06 04:30:11;;;;;;;2.00;1.90;;;;;;;;;;5043851;28;20585;-81
2023/01/06 04:32:38;;;;;;;2.13;2.03;;;;;;;;;;5051341;28;20209;-80
2023/01/06 04:35:05;;;;;;;2.27;2.17;;;;;;;;;;5051764;28;20213;-81
2023/01/06 04:37:34;;;;;;;2.30;2.10;;;;;;;;;;5051323;28;20812;-80
2023/01/06 04:40:02;;;;;;;2.20;2.00;;;;;;;;;;5050254;28;20226;-80
2023/01/06 04:43:02;;;;;;;2.30;2.20;;;;;;;;;;5036071;28;20302;-80
2023/01/06 04:45:18;;;;;;;2.00;1.90;;;;;;;;;;5038487;28;20248;-81
2023/01/06 04:47:45;;;;;;;2.23;2.13;;;;;;;;;;5051346;28;20621;-80
2023/01/06 04:50:12;;;;;;;3.50;3.23;;;;;;;;;;5048401;28;20218;-81
2023/01/06 04:52:39;;;;;;;2.10;1.90;;;;;;;;;;5050511;28;20202;-80
2023/01/06 04:55:07;;;;;;;1.80;1.70;;;;;;;;;;5038442;28;20203;-81
2023/01/06 04:57:34;;;;;;;3.87;1.93;;;;;;;;;;5031995;28;20583;-80
2023/01/06 05:00:01;;;;;;;1.57;1.57;;;;;;;;;;5050963;28;20229;-80
2023/01/06 05:02:30;;;;;;;1.83;1.73;;;;;;;;;;5050277;28;20636;-80
2023/01/06 05:04:57;;;;;;;1.97;1.80;;;;;;;;;;5051373;28;20194;-80
2023/01/06 05:07:24;;;;;;;1.70;1.60;;;;;;;;;;5051016;28;20260;-80
2023/01/06 05:09:51;;;;;;;2.17;1.83;;;;;;;;;;5049523;28;20222;-79
2023/01/06 05:12:18;;;;;;;1.73;1.70;;;;;;;;;;5043869;28;20236;-80
2023/01/06 05:14:45;;;;;;;1.90;1.80;;;;;;;;;;5050893;28;20217;-79
2023/01/06 05:17:12;;;;;;;2.10;1.93;;;;;;;;;;5055169;28;20610;-80
2023/01/06 05:19:43;;;;;;;1.97;1.80;;;;;;;;;;5054757;28;20202;-81
2023/01/06 05:22:10;;;;;;;2.23;2.00;;;;;;;;;;5054100;28;20230;-80
2023/01/06 05:24:37;;;;;;;2.27;2.17;;;;;;;;;;5053402;28;20198;-80
2023/01/06 05:27:05;;;;;;;2.50;2.40;;;;;;;;;;5034491;28;20238;-80
2023/01/06 05:29:32;;;;;;;2.00;1.90;;;;;;;;;;5034766;28;20206;-80
2023/01/06 05:31:59;;;;;;;1.90;1.80;;;;;;;;;;5034650;28;20292;-81
2023/01/06 05:34:26;;;;;;;2.40;2.17;;;;;;;;;;5047738;28;20233;-80
2023/01/06 05:36:54;;;;;;;2.57;2.40;;;;;;;;;;5053499;28;20248;-80
2023/01/06 05:39:21;;;;;;;2.57;2.40;;;;;;;;;;5046783;28;20202;-80
2023/01/06 05:41:48;;;;;;;2.77;2.57;;;;;;;;;;5043207;28;20253;-80
2023/01/06 05:44:15;;;;;;;2.40;2.30;;;;;;;;;;5052940;28;20536;-80
2023/01/06 05:46:42;;;;;;;2.50;2.30;;;;;;;;;;5035861;28;20238;-80
2023/01/06 05:49:09;;;;;;;2.50;2.30;;;;;;;;;;5034612;28;20202;-80
2023/01/06 05:51:37;;;;;;;3.00;2.30;;;;;;;;;;5050666;28;20242;-80
2023/01/06 05:54:07;;;;;;;2.23;2.13;;;;;;;;;;5053687;28;20226;-80
2023/01/06 05:56:34;;;;;;;2.27;2.17;;;;;;;;;;5053478;28;20237;-80
2023/01/06 05:59:01;;;;;;;3.10;2.20;;;;;;;;;;5053867;28;20210;-80
2023/01/06 06:01:30;;;;;;;2.47;1.77;;;;;;;;;;5051211;28;20242;-80
2023/01/06 06:03:57;;;;;;;2.30;2.10;;;;;;;;;;5034312;28;20293;-80
2023/01/06 06:06:25;;;;;;;1.90;1.80;;;;;;;;;;5033838;28;20235;-80
2023/01/06 06:08:52;;;;;;;2.30;2.10;;;;;;;;;;5034041;28;20211;-80
2023/01/06 06:11:22;;;;;;;2.23;2.10;;;;;;;;;;5033947;28;20274;-78
2023/01/06 06:13:49;;;;;;;2.17;2.03;;;;;;;;;;5034069;28;20280;-79
2023/01/06 06:16:18;;;;;;;2.30;2.10;;;;;;;;;;5034015;28;20234;-79
2023/01/06 06:18:48;;;;;;;2.60;1.93;;;;;;;;;;5033953;28;20206;-79
2023/01/06 06:21:16;;;;;;;2.43;1.73;;;;;;;;;;5033821;28;20242;-79
2023/01/06 06:23:43;;;;;;;1.80;1.70;;;;;;;;;;5033958;28;20210;-79
2023/01/06 06:26:11;;;;;;;1.73;1.63;;;;;;;;;;5033679;28;20234;-80
2023/01/06 06:28:40;;;;;;;1.90;1.70;;;;;;;;;;5052330;28;20205;-79
2023/01/06 06:31:07;;;;;;;1.63;1.50;;;;;;;;;;5049152;28;20374;-79
2023/01/06 06:33:34;;;;;;;2.00;1.73;;;;;;;;;;5046461;28;20705;-79
2023/01/06 06:36:02;;;;;;;2.70;1.80;;;;;;;;;;5035747;28;20713;-79
2023/01/06 06:38:29;;;;;;;1.90;1.40;;;;;;;;;;5045088;28;20206;-78
2023/01/06 06:40:56;;;;;;;2.13;1.70;;;;;;;;;;5039583;28;20245;-79
2023/01/06 06:43:23;;;;;;;1.50;1.50;;;;;;;;;;5047651;28;20202;-79
2023/01/06 06:45:52;;;;;;;1.83;1.20;;;;;;;;;;5033621;28;20238;-80
2023/01/06 06:48:19;;;;;;;1.83;1.73;;;;;;;;;;5033607;28;20207;-79
2023/01/06 06:50:46;;;;;;;1.50;1.40;;;;;;;;;;5051810;28;20249;-79
2023/01/06 06:53:13;;;;;;;1.70;1.60;;;;;;;;;;5051840;28;20202;-79
2023/01/06 06:55:40;;;;;;;1.63;1.60;;;;;;;;;;5033429;28;20231;-79
2023/01/06 06:58:07;;;;;;;1.60;1.50;;;;;;;;;;5034703;28;20206;-80
2023/01/06 07:00:34;;;;;;;1.80;1.70;;;;;;;;;;5016877;28;20608;-80
2023/01/06 07:03:02;;;;;;;2.30;2.10;;;;;;;;;;5039208;28;20198;-79
2023/01/06 07:05:29;;;;;;;2.17;2.07;;;;;;;;;;5052811;28;20234;-80
2023/01/06 07:07:56;;;;;;;3.00;2.00;;;;;;;;;;5038478;28;20214;-80
2023/01/06 07:10:23;;;;;;;1.80;1.70;;;;;;;;;;5034325;28;20670;-80
2023/01/06 07:12:50;;;;;;;1.50;1.50;;;;;;;;;;5041413;28;20545;-80
2023/01/06 07:15:17;;;;;;;1.70;1.60;;;;;;;;;;5034838;28;20226;-80
2023/01/06 07:17:44;;;;;;;1.63;1.53;;;;;;;;;;5035061;28;20194;-79
2023/01/06 07:20:13;;;;;;;1.60;1.50;;;;;;;;;;5052411;28;20248;-80
2023/01/06 07:22:40;;;;;;;2.30;2.03;;;;;;;;;;5045210;28;20205;-80
2023/01/06 07:25:08;;;;;;;1.97;1.87;;;;;;;;;;5036105;28;20199;-80
2023/01/06 07:27:35;;;;;;;1.90;1.80;;;;;;;;;;5033522;28;20216;-79
2023/01/06 07:30:03;;;;;;;2.37;2.20;;;;;;;;;;5032787;28;20226;-80
2023/01/06 07:32:30;;;;;;;2.40;2.20;;;;;;;;;;5043554;28;20207;-78
2023/01/06 07:34:57;;;;;;;1.80;1.70;;;;;;;;;;5045912;28;20694;-80
2023/01/06 07:37:25;;;;;;;1.90;1.80;;;;;;;;;;5052420;28;20230;-79
2023/01/06 07:39:52;;;;;;;2.23;2.03;;;;;;;;;;5052496;28;20233;-79
2023/01/06 07:42:19;;;;;;;2.23;2.13;;;;;;;;;;5052466;28;20230;-79
2023/01/06 07:44:46;;;;;;;6.73;1.80;;;;;;;;;;5051951;28;20251;-79
2023/01/06 07:47:14;;;;;;;2.97;2.37;;;;;;;;;;5051730;28;20234;-79
2023/01/06 07:49:41;;;;;;;1.90;1.80;;;;;;;;;;5049764;28;20198;-80
2023/01/06 07:52:08;;;;;;;4.77;3.20;;;;;;;;;;5044640;28;20225;-80
2023/01/06 07:54:36;;;;;;;1.40;1.40;;;;;;;;;;5051753;28;20222;-80
2023/01/06 07:57:03;;;;;;;3.27;2.73;;;;;;;;;;5037421;28;20230;-81
2023/01/06 07:59:30;;;;;;;1.70;1.60;;;;;;;;;;5033687;28;20693;-79
2023/01/06 08:01:57;;;;;;;2.00;1.90;;;;;;;;;;5026333;28;20231;-79
2023/01/06 08:04:24;;;;;;;2.00;1.90;;;;;;;;;;5013341;28;20592;-80
2023/01/06 08:06:51;;;;;;;1.70;1.60;;;;;;;;;;5026232;28;20235;-81
2023/01/06 08:09:18;;;;;;;2.03;1.93;;;;;;;;;;5032933;28;20218;-80
2023/01/06 08:11:47;;;;;;;1.80;1.70;;;;;;;;;;5032726;28;20242;-81
2023/01/06 08:14:14;;;;;;;1.93;1.60;;;;;;;;;;5034383;28;20218;-81
2023/01/06 08:16:41;;;;;;;1.90;1.80;;;;;;;;;;5043182;28;20226;-80
2023/01/06 08:19:08;;;;;;;1.80;1.70;;;;;;;;;;5033211;28;20198;-80
2023/01/06 08:21:35;;;;;;;1.80;1.57;;;;;;;;;;5032649;28;20242;-81
2023/01/06 08:24:04;;;;;;;1.60;1.50;;;;;;;;;;5045226;28;20206;-80
2023/01/06 08:26:31;;;;;;;1.67;1.57;;;;;;;;;;5036522;28;20230;-80
2023/01/06 08:28:59;;;;;;;1.73;1.50;;;;;;;;;;5032620;28;20268;-81
2023/01/06 08:31:26;;;;;;;1.77;1.67;;;;;;;;;;5017105;28;20249;-80
2023/01/06 08:33:53;;;;;;;3.33;1.90;;;;;;;;;;5013741;28;20211;-79
2023/01/06 08:36:21;;;;;;;2.00;1.90;;;;;;;;;;5018522;28;20230;-79
2023/01/06 08:38:49;;;;;;;2.27;1.77;;;;;;;;;;5032187;28;20203;-80
2023/01/06 08:41:16;;;;;;;3.10;1.90;;;;;;;;;;5032597;28;20593;-81
2023/01/06 08:43:44;;;;;;;1.60;1.50;;;;;;;;;;5032903;28;20210;-81
2023/01/06 08:46:13;;;;;;;1.63;1.57;;;;;;;;;;5032746;28;20243;-80
2023/01/06 08:48:41;;;;;;;2.00;1.90;;;;;;;;;;5032482;28;20203;-79
2023/01/06 08:51:09;;;;;;;2.60;1.63;;;;;;;;;;5035407;28;20244;-80
2023/01/06 08:53:36;;;;;;;2.10;1.90;;;;;;;;;;5036565;28;20194;-80
2023/01/06 08:56:04;;;;;;;2.50;1.90;;;;;;;;;;5035979;28;20256;-80
2023/01/06 08:58:32;;;;;;;2.20;1.90;;;;;;;;;;5037002;28;20199;-81
2023/01/06 09:00:59;;;;;;;1.53;1.53;;;;;;;;;;5037942;28;20238;-82
2023/01/06 09:03:28;;;;;;;2.03;1.93;;;;;;;;;;5041945;28;20576;-82
2023/01/06 09:05:55;;;;;;;4.70;4.30;;;;;;;;;;5043136;28;20758;-81
2023/01/06 09:08:23;;;;;;;3.60;2.83;;;;;;;;;;5042695;28;20207;-80
2023/01/06 09:10:50;;;;;;;3.57;2.93;;;;;;;;;;5041498;28;20261;-81
2023/01/06 09:13:17;;;;;;;5.43;3.00;;;;;;;;;;5046966;28;20218;-81
2023/01/06 09:15:47;;;;;;;2.67;2.47;;;;;;;;;;5049484;28;20231;-81
2023/01/06 09:18:14;;;;;;;1.80;1.70;;;;;;;;;;5035482;28;20221;-81
2023/01/06 09:20:43;;;;;;;2.10;2.00;;;;;;;;;;5035205;28;20245;-80
2023/01/06 09:23:10;;;;;;;2.10;1.93;;;;;;;;;;5036174;28;20210;-81
2023/01/06 09:25:40;;;;;;;2.70;1.30;;;;;;;;;;5035557;28;20241;-81
2023/01/06 09:28:07;;;;;;;1.70;1.60;;;;;;;;;;5035957;28;20647;-80
2023/01/06 09:30:34;;;;;;;5.07;2.50;;;;;;;;;;5035202;28;20281;-81
2023/01/06 09:33:01;;;;;;;1.90;1.30;;;;;;;;;;5035949;28;20690;-80
2023/01/06 09:35:28;;;;;;;1.70;1.60;;;;;;;;;;5038990;28;20234;-81
2023/01/06 09:37:56;;;;;;;2.40;1.73;;;;;;;;;;5041540;28;20203;-81
2023/01/06 09:40:26;;;;;;;2.23;1.60;;;;;;;;;;5037743;28;20253;-79
2023/01/06 09:42:59;;;;;;;1.50;1.50;;;;;;;;;;5035340;28;20807;-81
2023/01/06 09:45:31;;;;;;;5.37;1.53;;;;;;;;;;5035010;28;20235;-81
2023/01/06 09:47:59;;;;;;;2.10;1.63;;;;;;;;;;5035685;28;20710;-81
2023/01/06 09:50:31;;;;;;;2.53;1.80;;;;;;;;;;5035617;28;20238;-80
2023/01/06 09:53:02;;;;;;;1.77;1.67;;;;;;;;;;5036282;28;20214;-82
2023/01/06 09:55:32;;;;;;;1.77;1.67;;;;;;;;;;5034929;28;20241;-80
2023/01/06 09:58:01;;;;;;;2.63;2.30;;;;;;;;;;5035111;28;20468;-80
2023/01/06 10:00:34;;;;;;;2.33;1.60;;;;;;;;;;5034840;28;20314;-80
2023/01/06 10:03:01;;;;;;;2.10;1.40;;;;;;;;;;5033991;28;20203;-80
2023/01/06 10:05:33;;;;;;;1.70;1.60;;;;;;;;;;5034999;28;20237;-80
2023/01/06 10:08:04;;;;;;;2.77;2.07;;;;;;;;;;5035244;28;20203;-80
2023/01/06 10:10:36;;;;;;;2.93;2.27;;;;;;;;;;5034679;28;20234;-80
2023/01/06 10:13:10;;;;;;;3.43;2.63;;;;;;;;;;5034772;28;20697;-81
2023/01/06 10:15:41;;;;;;;2.33;1.90;;;;;;;;;;5034122;28;20241;-81
2023/01/06 10:18:18;;;;;;;1.43;1.43;;;;;;;;;;5034389;28;20199;-79
2023/01/06 10:20:50;;;;;;;2.17;1.87;;;;;;;;;;5047510;22;20253;-75
2023/01/06 10:23:25;;;;;;;1.60;1.50;;;;;;;;;;5033635;28;20681;-78
2023/01/06 10:25:54;;;;;;;1.20;1.20;;;;;;;;;;5032951;28;20234;-78
2023/01/06 10:28:28;;;;;;;3.47;1.90;;;;;;;;;;5033516;28;20210;-79
2023/01/06 10:30:56;;;;;;;3.43;1.50;;;;;;;;;;5028123;28;20239;-78
2023/01/06 10:33:24;;;;;;;2.17;1.70;;;;;;;;;;5014014;28;20208;-79
2023/01/06 10:35:52;;;;;;;1.77;1.67;;;;;;;;;;5013008;28;20245;-78
2023/01/06 10:38:21;;;;;;;2.17;1.80;;;;;;;;;;5013790;28;20211;-78
2023/01/06 10:40:50;;;;;;;5.53;2.03;;;;;;;;;;5013620;28;20231;-79
2023/01/06 10:43:21;;;;;;;2.07;1.60;;;;;;;;;;5014072;28;20214;-78
2023/01/06 10:45:48;;;;;;;1.63;1.53;;;;;;;;;;5013525;28;20239;-79
2023/01/06 10:48:17;;;;;;;1.80;1.70;;;;;;;;;;4998096;28;20295;-78
2023/01/06 10:50:44;;;;;;;1.83;1.50;;;;;;;;;;5013146;28;20235;-78
2023/01/06 10:53:12;;;;;;;2.37;1.87;;;;;;;;;;5005887;28;20204;-79
2023/01/06 10:55:40;;;;;;;2.13;1.40;;;;;;;;;;4993488;28;20239;-78
2023/01/06 10:58:19;;;;;;;1.43;1.33;;;;;;;;;;4993935;28;20211;-78
2023/01/06 11:00:56;;;;;;;1.93;1.20;;;;;;;;;;4993451;28;20236;-78
2023/01/06 11:03:23;;;;;;;1.50;1.40;;;;;;;;;;4993976;28;20226;-79
2023/01/06 11:05:59;;;;;;;1.40;1.30;;;;;;;;;;5005433;28;20231;-78
2023/01/06 11:08:26;;;;;;;1.60;1.50;;;;;;;;;;5013134;28;20231;-78
2023/01/06 11:10:55;;;;;;;3.13;1.73;;;;;;;;;;5013074;28;20242;-78
2023/01/06 11:13:25;;;;;;;2.50;1.77;;;;;;;;;;5013213;28;20203;-78
2023/01/06 11:15:52;;;;;;;2.33;2.13;;;;;;;;;;5012946;28;20227;-78
2023/01/06 11:18:21;;;;;;;4.87;2.17;;;;;;;;;;5013220;28;20219;-78
2023/01/06 11:21:01;;;;;;;3.30;2.50;;;;;;;;;;5012762;28;20262;-78
2023/01/06 11:23:29;;;;;;;2.03;1.93;;;;;;;;;;5013025;28;20218;-78
2023/01/06 11:26:03;;;;;;;3.07;1.93;;;;;;;;;;5012649;28;20242;-78
2023/01/06 11:28:31;;;;;;;2.17;2.00;;;;;;;;;;5012702;28;20234;-78
2023/01/06 11:31:01;;;;;;;3.03;2.33;;;;;;;;;;5012440;28;20236;-78
2023/01/06 11:33:29;;;;;;;1.60;1.50;;;;;;;;;;5012948;28;20208;-78
2023/01/06 11:35:57;;;;;;;2.00;1.90;;;;;;;;;;5012507;28;20329;-78
2023/01/06 11:38:24;;;;;;;1.90;1.80;;;;;;;;;;5013233;28;20242;-76
2023/01/06 11:40:52;;;;;;;1.73;1.60;;;;;;;;;;5012125;28;20235;-76
2023/01/06 11:43:22;;;;;;;1.87;1.77;;;;;;;;;;4993375;28;20203;-77
2023/01/06 11:45:53;;;;;;;1.83;1.47;;;;;;;;;;4992605;28;20235;-76
2023/01/06 11:48:22;;;;;;;1.80;1.70;;;;;;;;;;4992820;28;20719;-77
2023/01/06 11:50:53;;;;;;;1.37;1.37;;;;;;;;;;4992153;28;20251;-77
2023/01/06 11:53:23;;;;;;;9.63;2.40;;;;;;;;;;4993365;28;20216;-77
2023/01/06 11:55:56;;;;;;;2.23;2.03;;;;;;;;;;4992318;28;20244;-78
2023/01/06 11:58:27;;;;;;;1.87;1.77;;;;;;;;;;4992945;28;20212;-78
2023/01/06 12:01:01;;;;;;;2.77;2.00;;;;;;;;;;5005737;28;20237;-78
2023/01/06 12:03:31;;;;;;;3.40;2.10;;;;;;;;;;5015514;28;20261;-77
2023/01/06 12:06:01;;;;;;;3.73;2.13;;;;;;;;;;5011868;28;20245;-78
2023/01/06 12:08:32;;;;;;;1.60;1.50;;;;;;;;;;5012192;28;20211;-78
2023/01/06 12:11:01;;;;;;;2.40;2.03;;;;;;;;;;5011826;28;20622;-78
2023/01/06 12:13:28;;;;;;;1.97;1.87;;;;;;;;;;5012384;28;20207;-78
2023/01/06 12:16:00;;;;;;;1.33;1.33;;;;;;;;;;5011864;28;20231;-78
2023/01/06 12:18:30;;;;;;;2.10;1.90;;;;;;;;;;5012053;28;20214;-78
2023/01/06 12:20:58;;;;;;;2.20;2.00;;;;;;;;;;5011755;28;20235;-78
2023/01/06 12:23:26;;;;;;;2.17;1.80;;;;;;;;;;5012173;28;20214;-78
2023/01/06 12:25:55;;;;;;;2.50;2.23;;;;;;;;;;5010974;28;20238;-78
2023/01/06 12:28:26;;;;;;;4.23;2.30;;;;;;;;;;5011804;28;20210;-78
2023/01/06 12:30:57;;;;;;;1.77;1.67;;;;;;;;;;5011545;28;20656;-78
2023/01/06 12:33:31;;;;;;;2.57;2.23;;;;;;;;;;5011845;28;20210;-78
2023/01/06 12:36:00;;;;;;;2.10;2.00;;;;;;;;;;5011459;28;20296;-78
2023/01/06 12:38:31;;;;;;;1.73;1.63;;;;;;;;;;5011796;28;20218;-78
2023/01/06 12:41:01;;;;;;;3.13;1.50;;;;;;;;;;5011480;28;20258;-78
2023/01/06 12:43:31;;;;;;;2.00;1.90;;;;;;;;;;5012110;28;20243;-78
2023/01/06 12:46:01;;;;;;;2.33;1.90;;;;;;;;;;5011110;28;20238;-78
2023/01/06 12:48:36;;;;;;;2.70;1.93;;;;;;;;;;5011794;28;20203;-78
2023/01/06 12:51:06;;;;;;;2.17;2.07;;;;;;;;;;5011284;28;20241;-78
2023/01/06 12:53:36;;;;;;;1.87;1.77;;;;;;;;;;5011877;28;20208;-78
2023/01/06 12:56:08;;;;;;;1.97;1.70;;;;;;;;;;5005812;28;20227;-78
2023/01/06 12:58:39;;;;;;;3.17;1.67;;;;;;;;;;4992833;28;20656;-78
2023/01/06 13:01:10;;;;;;;2.20;2.10;;;;;;;;;;5018937;28;20623;-78
2023/01/06 13:03:55;;;;;;;4.63;2.87;;;;;;;;;;5011637;28;20210;-78
2023/01/06 13:06:34;;;;;;;1.90;1.80;;;;;;;;;;5010889;28;20231;-78
2023/01/06 13:09:11;;;;;;;3.43;2.60;;;;;;;;;;5011251;28;20229;-78
2023/01/06 13:11:56;;;;;;;4.77;3.23;;;;;;;;;;5007162;28;20694;-78
2023/01/06 13:14:25;;;;;;;3.03;2.73;;;;;;;;;;5011049;28;20942;-78
2023/01/06 13:16:56;;;;;;;2.73;2.40;;;;;;;;;;5010763;28;20239;-78
2023/01/06 13:19:32;;;;;;;1.93;1.83;;;;;;;;;;5007584;28;20211;-78
2023/01/06 13:22:00;;;;;;;2.23;1.93;;;;;;;;;;5010729;28;20242;-78
2023/01/06 13:24:35;;;;;;;4.77;2.00;;;;;;;;;;5011060;28;20199;-78
2023/01/06 13:27:13;;;;;;;1.80;1.70;;;;;;;;;;5003317;28;20231;-78
2023/01/06 13:29:48;;;;;;;4.90;1.90;;;;;;;;;;5010606;28;20290;-78
2023/01/06 13:32:30;;;;;;;2.80;2.00;;;;;;;;;;5010588;28;20239;-78
2023/01/06 13:35:08;;;;;;;1.87;1.77;;;;;;;;;;5010859;28;20207;-78
2023/01/06 13:37:37;;;;;;;1.83;1.73;;;;;;;;;;5013089;28;20238;-79
2023/01/06 13:40:08;;;;;;;2.10;1.90;;;;;;;;;;5009094;28;20203;-79
2023/01/06 13:42:38;;;;;;;1.50;1.40;;;;;;;;;;5014738;28;20231;-78
2023/01/06 13:45:09;;;;;;;1.90;1.80;;;;;;;;;;5014245;28;20701;-78
2023/01/06 13:47:36;;;;;;;4.73;1.73;;;;;;;;;;5014538;28;20188;-78
2023/01/06 13:50:05;;;;;;;2.83;2.00;;;;;;;;;;5013729;28;20219;-79
2023/01/06 13:52:32;;;;;;;2.57;1.97;;;;;;;;;;5014282;28;20232;-78
2023/01/06 13:55:02;;;;;;;2.23;2.10;;;;;;;;;;5014502;28;20203;-78
2023/01/06 13:57:31;;;;;;;3.13;2.70;;;;;;;;;;5006528;28;20251;-78
2023/01/06 14:00:13;;;;;;;3.53;2.50;;;;;;;;;;4994538;28;20212;-78
2023/01/06 14:02:59;;;;;;;2.30;2.10;;;;;;;;;;4994232;28;20243;-78
2023/01/06 14:05:45;;;;;;;2.53;2.30;;;;;;;;;;4994389;28;20236;-78
2023/01/06 14:08:16;;;;;;;1.97;1.87;;;;;;;;;;4994291;28;20691;-78
2023/01/06 14:10:44;;;;;;;2.20;2.00;;;;;;;;;;4993743;28;20247;-78
2023/01/06 14:13:19;;;;;;;2.53;2.33;;;;;;;;;;4994496;28;20219;-78
2023/01/06 14:15:54;;;;;;;3.47;2.30;;;;;;;;;;4999056;28;20242;-77
2023/01/06 14:18:30;;;;;;;1.80;1.70;;;;;;;;;;5013598;28;20215;-77
2023/01/06 14:21:01;;;;;;;2.20;1.80;;;;;;;;;;5013039;28;20234;-78
2023/01/06 14:23:30;;;;;;;4.83;2.67;;;;;;;;;;5014057;28;20273;-78
2023/01/06 14:25:57;;;;;;;4.60;2.90;;;;;;;;;;5012939;28;20651;-78
2023/01/06 14:28:26;;;;;;;5.70;4.37;;;;;;;;;;5013620;28;20195;-78
2023/01/06 14:31:13;;;;;;;3.70;2.80;;;;;;;;;;5023458;28;20242;-77
2023/01/06 14:33:40;;;;;;;4.93;2.30;;;;;;;;;;5015937;28;20632;-78
2023/01/06 14:36:12;;;;;;;3.37;1.87;;;;;;;;;;5013175;28;20235;-78
2023/01/06 14:38:44;;;;;;;5.43;4.53;;;;;;;;;;5013286;28;20282;-78
2023/01/06 14:41:18;;;;;;;4.27;2.40;;;;;;;;;;5012858;28;20715;-78
2023/01/06 14:43:50;;;;;;;3.50;1.97;;;;;;;;;;5013187;28;20219;-78
2023/01/06 14:46:19;;;;;;;4.27;3.40;;;;;;;;;;5013046;28;20235;-78
2023/01/06 14:48:50;;;;;;;5.13;2.70;;;;;;;;;;5012214;28;20210;-78
2023/01/06 14:51:19;;;;;;;3.77;2.50;;;;;;;;;;5012846;28;20699;-78
2023/01/06 14:53:54;;;;;;;3.63;3.03;;;;;;;;;;5013188;28;20226;-78
2023/01/06 14:56:22;;;;;;;7.50;4.40;;;;;;;;;;5012658;28;20239;-78
2023/01/06 14:58:49;;;;;;;6.00;3.33;;;;;;;;;;5012427;28;20352;-78